sensor_id;sensor_type;location;lat;lon;timestamp;temperature;humidity
52125;DHT22;38119;52.710;6.398;2022-12-29T00:01:23;10.20;99.90
52125;DHT22;38119;52.710;6.398;2022-12-29T00:03:49;10.80;99.90
52125;DHT22;38119;52.710;6.398;2022-12-29T00:06:14;10.60;99.90
52125;DHT22;38119;52.710;6.398;2022-12-29T00:08:40;11.00;99.90
52125;DHT22;38119;52.710;6.398;2022-12-29T00:11:14;10.40;99.90
52125;DHT22;38119;52.710;6.398;2022-12-29T00:13:40;10.30;99.90
52125;DHT22;38119;52.710;6.398;2022-12-29T00:16:25;10.50;99.90
52125;DHT22;38119;52.710;6.398;2022-12-29T00:18:51;10.30;99.90
52125;DHT22;38119;52.710;6.398;2022-12-29T00:21:19;10.50;99.90
52125;DHT22;38119;52.710;6.398;2022-12-29T00:24:04;10.80;99.90
52125;DHT22;38119;52.710;6.398;2022-12-29T00:26:54;10.30;99.90
52125;DHT22;38119;52.710;6.398;2022-12-29T00:29:39;11.00;99.90
52125;DHT22;38119;52.710;6.398;2022-12-29T00:32:23;10.30;99.90
52125;DHT22;38119;52.710;6.398;2022-12-29T00:35:11;11.00;99.90
52125;DHT22;38119;52.710;6.398;2022-12-29T00:37:46;10.50;99.90
52125;DHT22;38119;52.710;6.398;2022-12-29T00:40:30;10.70;99.90
52125;DHT22;38119;52.710;6.398;2022-12-29T00:43:15;10.70;99.90
52125;DHT22;38119;52.710;6.398;2022-12-29T00:45:59;10.90;99.90
52125;DHT22;38119;52.710;6.398;2022-12-29T00:48:24;11.00;99.90
52125;DHT22;38119;52.710;6.398;2022-12-29T00:51:08;10.30;99.90
52125;DHT22;38119;52.710;6.398;2022-12-29T00:53:34;10.80;99.90
52125;DHT22;38119;52.710;6.398;2022-12-29T00:56:00;10.40;99.90
52125;DHT22;38119;52.710;6.398;2022-12-29T00:58:30;11.00;99.90
52125;DHT22;38119;52.710;6.398;2022-12-29T01:01:07;10.40;99.90
52125;DHT22;38119;52.710;6.398;2022-12-29T01:03:34;11.00;99.90
52125;DHT22;38119;52.710;6.398;2022-12-29T01:06:05;11.20;99.90
52125;DHT22;38119;52.710;6.398;2022-12-29T01:08:31;10.70;99.90
52125;DHT22;38119;52.710;6.398;2022-12-29T01:11:00;11.20;99.90
52125;DHT22;38119;52.710;6.398;2022-12-29T01:13:26;10.50;99.90
52125;DHT22;38119;52.710;6.398;2022-12-29T01:15:52;10.90;99.90
52125;DHT22;38119;52.710;6.398;2022-12-29T01:18:19;11.40;99.90
52125;DHT22;38119;52.710;6.398;2022-12-29T01:20:45;10.60;99.90
52125;DHT22;38119;52.710;6.398;2022-12-29T01:23:10;11.00;99.90
52125;DHT22;38119;52.710;6.398;2022-12-29T01:25:36;10.60;99.90
52125;DHT22;38119;52.710;6.398;2022-12-29T01:28:01;11.30;99.90
52125;DHT22;38119;52.710;6.398;2022-12-29T01:30:27;10.60;99.90
52125;DHT22;38119;52.710;6.398;2022-12-29T01:32:53;11.10;99.90
52125;DHT22;38119;52.710;6.398;2022-12-29T01:35:18;11.00;99.90
52125;DHT22;38119;52.710;6.398;2022-12-29T01:37:44;11.40;99.90
52125;DHT22;38119;52.710;6.398;2022-12-29T01:40:10;10.90;99.90
52125;DHT22;38119;52.710;6.398;2022-12-29T01:42:36;10.60;99.90
52125;DHT22;38119;52.710;6.398;2022-12-29T01:45:12;11.30;99.90
52125;DHT22;38119;52.710;6.398;2022-12-29T01:50:20;10.70;99.90
52125;DHT22;38119;52.710;6.398;2022-12-29T01:52:54;11.10;99.90
52125;DHT22;38119;52.710;6.398;2022-12-29T01:55:21;11.10;99.90
52125;DHT22;38119;52.710;6.398;2022-12-29T01:57:50;10.70;99.90
52125;DHT22;38119;52.710;6.398;2022-12-29T02:00:17;11.40;99.90
52125;DHT22;38119;52.710;6.398;2022-12-29T02:02:53;10.70;99.90
52125;DHT22;38119;52.710;6.398;2022-12-29T02:05:47;10.60;99.90
52125;DHT22;38119;52.710;6.398;2022-12-29T02:08:14;10.70;99.90
52125;DHT22;38119;52.710;6.398;2022-12-29T02:10:40;10.90;99.90
52125;DHT22;38119;52.710;6.398;2022-12-29T02:13:07;11.30;99.90
52125;DHT22;38119;52.710;6.398;2022-12-29T02:32:53;10.60;99.90
52125;DHT22;38119;52.710;6.398;2022-12-29T02:41:05;10.50;99.90
52125;DHT22;38119;52.710;6.398;2022-12-29T02:43:35;10.50;99.90
52125;DHT22;38119;52.710;6.398;2022-12-29T02:51:44;10.50;99.90
52125;DHT22;38119;52.710;6.398;2022-12-29T02:54:12;10.50;99.90
52125;DHT22;38119;52.710;6.398;2022-12-29T02:56:56;10.50;99.90
52125;DHT22;38119;52.710;6.398;2022-12-29T02:59:22;10.50;99.90
52125;DHT22;38119;52.710;6.398;2022-12-29T03:11:05;10.40;99.90
52125;DHT22;38119;52.710;6.398;2022-12-29T03:13:49;10.40;99.90
52125;DHT22;38119;52.710;6.398;2022-12-29T03:16:53;10.40;99.90
52125;DHT22;38119;52.710;6.398;2022-12-29T03:19:30;10.30;99.90
52125;DHT22;38119;52.710;6.398;2022-12-29T03:22:01;10.70;99.90
52125;DHT22;38119;52.710;6.398;2022-12-29T03:25:00;11.20;99.90
52125;DHT22;38119;52.710;6.398;2022-12-29T03:27:41;10.30;99.90
52125;DHT22;38119;52.710;6.398;2022-12-29T03:30:08;10.40;99.90
52125;DHT22;38119;52.710;6.398;2022-12-29T03:32:54;10.40;99.90
52125;DHT22;38119;52.710;6.398;2022-12-29T03:35:22;10.40;99.90
52125;DHT22;38119;52.710;6.398;2022-12-29T03:37:59;11.10;99.90
52125;DHT22;38119;52.710;6.398;2022-12-29T03:40:28;10.70;99.90
52125;DHT22;38119;52.710;6.398;2022-12-29T03:42:56;11.20;99.90
52125;DHT22;38119;52.710;6.398;2022-12-29T03:45:21;10.40;99.90
52125;DHT22;38119;52.710;6.398;2022-12-29T03:47:47;10.50;99.90
52125;DHT22;38119;52.710;6.398;2022-12-29T03:50:13;10.60;99.90
52125;DHT22;38119;52.710;6.398;2022-12-29T03:52:39;10.60;99.90
52125;DHT22;38119;52.710;6.398;2022-12-29T03:55:05;11.00;99.90
52125;DHT22;38119;52.710;6.398;2022-12-29T03:57:31;10.60;99.90
52125;DHT22;38119;52.710;6.398;2022-12-29T03:59:56;10.60;99.90
52125;DHT22;38119;52.710;6.398;2022-12-29T04:02:22;10.50;99.90
52125;DHT22;38119;52.710;6.398;2022-12-29T04:04:49;10.50;99.90
52125;DHT22;38119;52.710;6.398;2022-12-29T04:07:15;10.50;99.90
52125;DHT22;38119;52.710;6.398;2022-12-29T04:09:40;10.50;99.90
52125;DHT22;38119;52.710;6.398;2022-12-29T04:12:06;10.40;99.90
52125;DHT22;38119;52.710;6.398;2022-12-29T04:14:31;10.40;99.90
52125;DHT22;38119;52.710;6.398;2022-12-29T04:16:57;10.40;99.90
52125;DHT22;38119;52.710;6.398;2022-12-29T04:19:23;10.50;99.90
52125;DHT22;38119;52.710;6.398;2022-12-29T04:21:48;10.70;99.90
52125;DHT22;38119;52.710;6.398;2022-12-29T04:24:14;10.50;99.90
52125;DHT22;38119;52.710;6.398;2022-12-29T04:26:40;10.50;99.90
52125;DHT22;38119;52.710;6.398;2022-12-29T04:29:05;10.50;99.90
52125;DHT22;38119;52.710;6.398;2022-12-29T04:31:31;10.50;99.90
52125;DHT22;38119;52.710;6.398;2022-12-29T04:33:56;10.40;99.90
52125;DHT22;38119;52.710;6.398;2022-12-29T04:36:23;10.50;99.90
52125;DHT22;38119;52.710;6.398;2022-12-29T04:38:48;10.40;99.90
52125;DHT22;38119;52.710;6.398;2022-12-29T04:41:14;10.30;99.90
52125;DHT22;38119;52.710;6.398;2022-12-29T04:43:40;10.30;99.90
52125;DHT22;38119;52.710;6.398;2022-12-29T04:46:05;10.40;99.90
52125;DHT22;38119;52.710;6.398;2022-12-29T04:48:31;10.40;99.90
52125;DHT22;38119;52.710;6.398;2022-12-29T04:50:57;10.30;99.90
52125;DHT22;38119;52.710;6.398;2022-12-29T04:53:23;10.30;99.90
52125;DHT22;38119;52.710;6.398;2022-12-29T04:55:52;10.40;99.90
52125;DHT22;38119;52.710;6.398;2022-12-29T04:58:19;10.40;99.90
52125;DHT22;38119;52.710;6.398;2022-12-29T05:00:45;10.40;99.90
52125;DHT22;38119;52.710;6.398;2022-12-29T05:03:11;10.40;99.90
52125;DHT22;38119;52.710;6.398;2022-12-29T05:05:36;10.30;99.90
52125;DHT22;38119;52.710;6.398;2022-12-29T05:08:02;10.30;99.90
52125;DHT22;38119;52.710;6.398;2022-12-29T05:10:28;10.30;99.90
52125;DHT22;38119;52.710;6.398;2022-12-29T05:12:53;10.30;99.90
52125;DHT22;38119;52.710;6.398;2022-12-29T05:15:19;10.30;99.90
52125;DHT22;38119;52.710;6.398;2022-12-29T05:17:44;10.30;99.90
52125;DHT22;38119;52.710;6.398;2022-12-29T05:20:10;10.30;99.90
52125;DHT22;38119;52.710;6.398;2022-12-29T05:22:36;10.30;99.90
52125;DHT22;38119;52.710;6.398;2022-12-29T05:25:02;10.30;99.90
52125;DHT22;38119;52.710;6.398;2022-12-29T05:27:28;10.30;99.90
52125;DHT22;38119;52.710;6.398;2022-12-29T05:29:53;10.30;99.90
52125;DHT22;38119;52.710;6.398;2022-12-29T05:32:19;10.30;99.90
52125;DHT22;38119;52.710;6.398;2022-12-29T05:34:45;10.30;99.90
52125;DHT22;38119;52.710;6.398;2022-12-29T05:37:10;10.30;99.90
52125;DHT22;38119;52.710;6.398;2022-12-29T05:39:36;10.20;99.90
52125;DHT22;38119;52.710;6.398;2022-12-29T05:42:02;10.30;99.90
52125;DHT22;38119;52.710;6.398;2022-12-29T05:44:27;10.30;99.90
52125;DHT22;38119;52.710;6.398;2022-12-29T05:46:53;10.30;99.90
52125;DHT22;38119;52.710;6.398;2022-12-29T05:49:19;10.40;99.90
52125;DHT22;38119;52.710;6.398;2022-12-29T05:51:45;10.40;99.90
52125;DHT22;38119;52.710;6.398;2022-12-29T05:54:11;10.40;99.90
52125;DHT22;38119;52.710;6.398;2022-12-29T05:56:37;10.30;99.90
52125;DHT22;38119;52.710;6.398;2022-12-29T05:59:03;10.40;99.90
52125;DHT22;38119;52.710;6.398;2022-12-29T06:01:28;10.30;99.90
52125;DHT22;38119;52.710;6.398;2022-12-29T06:03:54;10.30;99.90
52125;DHT22;38119;52.710;6.398;2022-12-29T06:06:19;10.20;99.90
52125;DHT22;38119;52.710;6.398;2022-12-29T06:08:45;10.30;99.90
52125;DHT22;38119;52.710;6.398;2022-12-29T06:11:11;10.20;99.90
52125;DHT22;38119;52.710;6.398;2022-12-29T06:13:37;10.20;99.90
52125;DHT22;38119;52.710;6.398;2022-12-29T06:16:02;10.10;99.90
52125;DHT22;38119;52.710;6.398;2022-12-29T06:18:28;10.10;99.90
52125;DHT22;38119;52.710;6.398;2022-12-29T06:20:54;10.20;99.90
52125;DHT22;38119;52.710;6.398;2022-12-29T06:23:20;10.10;99.90
52125;DHT22;38119;52.710;6.398;2022-12-29T06:25:47;10.10;99.90
52125;DHT22;38119;52.710;6.398;2022-12-29T06:28:13;10.10;99.90
52125;DHT22;38119;52.710;6.398;2022-12-29T06:30:39;10.20;99.90
52125;DHT22;38119;52.710;6.398;2022-12-29T06:33:05;10.20;99.90
52125;DHT22;38119;52.710;6.398;2022-12-29T06:35:30;10.20;99.90
52125;DHT22;38119;52.710;6.398;2022-12-29T06:37:56;10.20;99.90
52125;DHT22;38119;52.710;6.398;2022-12-29T06:40:25;10.10;99.90
52125;DHT22;38119;52.710;6.398;2022-12-29T06:42:50;10.10;99.90
52125;DHT22;38119;52.710;6.398;2022-12-29T06:45:16;10.20;99.90
52125;DHT22;38119;52.710;6.398;2022-12-29T06:47:42;10.10;99.90
52125;DHT22;38119;52.710;6.398;2022-12-29T06:50:07;10.10;99.90
52125;DHT22;38119;52.710;6.398;2022-12-29T06:52:33;10.10;99.90
52125;DHT22;38119;52.710;6.398;2022-12-29T06:54:59;10.10;99.90
52125;DHT22;38119;52.710;6.398;2022-12-29T06:57:25;10.00;99.90
52125;DHT22;38119;52.710;6.398;2022-12-29T06:59:52;10.00;99.90
52125;DHT22;38119;52.710;6.398;2022-12-29T07:02:17;10.10;99.90
52125;DHT22;38119;52.710;6.398;2022-12-29T07:04:46;10.10;99.90
52125;DHT22;38119;52.710;6.398;2022-12-29T07:07:12;10.10;99.90
52125;DHT22;38119;52.710;6.398;2022-12-29T07:09:37;10.10;99.90
52125;DHT22;38119;52.710;6.398;2022-12-29T07:12:03;10.00;99.90
52125;DHT22;38119;52.710;6.398;2022-12-29T07:14:29;10.00;99.90
52125;DHT22;38119;52.710;6.398;2022-12-29T07:16:54;10.00;99.90
52125;DHT22;38119;52.710;6.398;2022-12-29T07:19:20;10.10;99.90
52125;DHT22;38119;52.710;6.398;2022-12-29T07:21:45;10.00;99.90
52125;DHT22;38119;52.710;6.398;2022-12-29T07:24:11;10.00;99.90
52125;DHT22;38119;52.710;6.398;2022-12-29T07:26:37;9.90;99.90
52125;DHT22;38119;52.710;6.398;2022-12-29T07:29:03;9.90;99.90
52125;DHT22;38119;52.710;6.398;2022-12-29T07:31:29;9.90;99.90
52125;DHT22;38119;52.710;6.398;2022-12-29T07:33:55;9.90;99.90
52125;DHT22;38119;52.710;6.398;2022-12-29T07:36:21;9.90;99.90
52125;DHT22;38119;52.710;6.398;2022-12-29T07:38:47;9.90;99.90
52125;DHT22;38119;52.710;6.398;2022-12-29T07:41:12;9.90;99.90
52125;DHT22;38119;52.710;6.398;2022-12-29T07:43:38;9.90;99.90
52125;DHT22;38119;52.710;6.398;2022-12-29T07:46:04;9.90;99.90
52125;DHT22;38119;52.710;6.398;2022-12-29T07:48:29;9.90;99.90
52125;DHT22;38119;52.710;6.398;2022-12-29T07:50:55;9.90;99.90
52125;DHT22;38119;52.710;6.398;2022-12-29T07:53:21;9.90;99.90
52125;DHT22;38119;52.710;6.398;2022-12-29T07:55:46;10.20;99.90
52125;DHT22;38119;52.710;6.398;2022-12-29T07:58:12;9.90;99.90
52125;DHT22;38119;52.710;6.398;2022-12-29T08:00:38;9.90;99.90
52125;DHT22;38119;52.710;6.398;2022-12-29T08:03:04;9.90;99.90
52125;DHT22;38119;52.710;6.398;2022-12-29T08:05:31;10.00;99.90
52125;DHT22;38119;52.710;6.398;2022-12-29T08:07:57;10.00;99.90
52125;DHT22;38119;52.710;6.398;2022-12-29T08:10:23;9.90;99.90
52125;DHT22;38119;52.710;6.398;2022-12-29T08:12:49;9.90;99.90
52125;DHT22;38119;52.710;6.398;2022-12-29T08:15:15;9.90;99.90
52125;DHT22;38119;52.710;6.398;2022-12-29T08:17:41;9.90;99.90
52125;DHT22;38119;52.710;6.398;2022-12-29T08:20:07;9.90;99.90
52125;DHT22;38119;52.710;6.398;2022-12-29T08:22:33;9.90;99.90
52125;DHT22;38119;52.710;6.398;2022-12-29T08:24:58;9.90;99.90
52125;DHT22;38119;52.710;6.398;2022-12-29T08:27:24;9.90;99.90
52125;DHT22;38119;52.710;6.398;2022-12-29T08:29:50;9.90;99.90
52125;DHT22;38119;52.710;6.398;2022-12-29T08:32:16;9.90;99.90
52125;DHT22;38119;52.710;6.398;2022-12-29T08:34:42;9.80;99.90
52125;DHT22;38119;52.710;6.398;2022-12-29T08:37:07;9.90;99.90
52125;DHT22;38119;52.710;6.398;2022-12-29T08:39:33;9.80;99.90
52125;DHT22;38119;52.710;6.398;2022-12-29T08:41:59;9.90;99.90
52125;DHT22;38119;52.710;6.398;2022-12-29T08:44:25;10.00;99.90
52125;DHT22;38119;52.710;6.398;2022-12-29T08:46:50;9.90;99.90
52125;DHT22;38119;52.710;6.398;2022-12-29T08:49:16;9.90;99.90
52125;DHT22;38119;52.710;6.398;2022-12-29T08:51:42;9.90;99.90
52125;DHT22;38119;52.710;6.398;2022-12-29T08:54:07;10.00;99.90
52125;DHT22;38119;52.710;6.398;2022-12-29T08:56:33;9.90;99.90
52125;DHT22;38119;52.710;6.398;2022-12-29T08:58:59;9.90;99.90
52125;DHT22;38119;52.710;6.398;2022-12-29T09:01:24;9.90;99.90
52125;DHT22;38119;52.710;6.398;2022-12-29T09:03:50;9.90;99.90
52125;DHT22;38119;52.710;6.398;2022-12-29T09:06:17;9.90;99.90
52125;DHT22;38119;52.710;6.398;2022-12-29T09:08:43;9.90;99.90
52125;DHT22;38119;52.710;6.398;2022-12-29T09:11:11;9.90;99.90
52125;DHT22;38119;52.710;6.398;2022-12-29T09:13:37;9.80;99.90
52125;DHT22;38119;52.710;6.398;2022-12-29T09:16:03;9.80;99.90
52125;DHT22;38119;52.710;6.398;2022-12-29T09:18:29;9.80;99.90
52125;DHT22;38119;52.710;6.398;2022-12-29T09:21:01;9.70;99.90
52125;DHT22;38119;52.710;6.398;2022-12-29T09:23:27;9.70;99.90
52125;DHT22;38119;52.710;6.398;2022-12-29T09:25:53;9.70;99.90
52125;DHT22;38119;52.710;6.398;2022-12-29T09:28:20;9.70;99.90
52125;DHT22;38119;52.710;6.398;2022-12-29T09:30:45;9.60;99.90
52125;DHT22;38119;52.710;6.398;2022-12-29T09:33:11;9.60;99.90
52125;DHT22;38119;52.710;6.398;2022-12-29T09:35:37;9.60;99.90
52125;DHT22;38119;52.710;6.398;2022-12-29T09:38:02;9.50;99.90
52125;DHT22;38119;52.710;6.398;2022-12-29T09:40:33;9.50;99.90
52125;DHT22;38119;52.710;6.398;2022-12-29T09:45:55;9.50;99.90
52125;DHT22;38119;52.710;6.398;2022-12-29T09:48:29;9.50;99.90
52125;DHT22;38119;52.710;6.398;2022-12-29T09:50:59;9.50;99.90
52125;DHT22;38119;52.710;6.398;2022-12-29T09:53:30;9.50;99.90
52125;DHT22;38119;52.710;6.398;2022-12-29T09:56:00;9.50;99.90
52125;DHT22;38119;52.710;6.398;2022-12-29T10:02:57;9.50;99.90
52125;DHT22;38119;52.710;6.398;2022-12-29T10:09:19;9.60;99.90
52125;DHT22;38119;52.710;6.398;2022-12-29T10:12:17;9.60;99.90
52125;DHT22;38119;52.710;6.398;2022-12-29T10:15:04;9.70;99.90
52125;DHT22;38119;52.710;6.398;2022-12-29T10:20:49;9.70;99.90
52125;DHT22;38119;52.710;6.398;2022-12-29T10:23:35;9.60;99.90
52125;DHT22;38119;52.710;6.398;2022-12-29T10:26:03;9.60;99.90
52125;DHT22;38119;52.710;6.398;2022-12-29T10:29:02;9.60;99.90
52125;DHT22;38119;52.710;6.398;2022-12-29T10:32:04;9.70;99.90
52125;DHT22;38119;52.710;6.398;2022-12-29T10:34:54;9.70;99.90
52125;DHT22;38119;52.710;6.398;2022-12-29T10:37:58;9.70;99.90
52125;DHT22;38119;52.710;6.398;2022-12-29T10:40:46;9.70;99.90
52125;DHT22;38119;52.710;6.398;2022-12-29T10:43:56;9.70;99.90
52125;DHT22;38119;52.710;6.398;2022-12-29T10:46:32;9.70;99.90
52125;DHT22;38119;52.710;6.398;2022-12-29T10:48:59;9.80;99.90
52125;DHT22;38119;52.710;6.398;2022-12-29T10:51:39;9.80;99.90
52125;DHT22;38119;52.710;6.398;2022-12-29T10:54:21;9.70;99.90
52125;DHT22;38119;52.710;6.398;2022-12-29T10:57:00;9.70;99.90
52125;DHT22;38119;52.710;6.398;2022-12-29T10:59:50;9.70;99.90
52125;DHT22;38119;52.710;6.398;2022-12-29T11:03:00;10.00;99.90
52125;DHT22;38119;52.710;6.398;2022-12-29T11:05:36;9.70;99.90
52125;DHT22;38119;52.710;6.398;2022-12-29T11:11:27;9.60;99.90
52125;DHT22;38119;52.710;6.398;2022-12-29T11:14:02;9.60;99.90
52125;DHT22;38119;52.710;6.398;2022-12-29T11:16:33;9.60;99.90
52125;DHT22;38119;52.710;6.398;2022-12-29T11:19:00;9.70;99.90
52125;DHT22;38119;52.710;6.398;2022-12-29T11:24:00;10.00;99.90
52125;DHT22;38119;52.710;6.398;2022-12-29T11:26:27;9.60;99.90
52125;DHT22;38119;52.710;6.398;2022-12-29T11:31:45;9.60;99.90
52125;DHT22;38119;52.710;6.398;2022-12-29T11:34:20;9.50;99.90
52125;DHT22;38119;52.710;6.398;2022-12-29T11:36:46;9.70;99.90
52125;DHT22;38119;52.710;6.398;2022-12-29T11:39:32;9.50;99.90
52125;DHT22;38119;52.710;6.398;2022-12-29T11:41:59;10.30;99.90
52125;DHT22;38119;52.710;6.398;2022-12-29T11:44:26;10.20;99.90
52125;DHT22;38119;52.710;6.398;2022-12-29T11:46:52;9.90;99.90
52125;DHT22;38119;52.710;6.398;2022-12-29T11:49:23;10.00;99.90
52125;DHT22;38119;52.710;6.398;2022-12-29T11:51:51;10.60;99.90
52125;DHT22;38119;52.710;6.398;2022-12-29T11:56:52;9.90;99.90
52125;DHT22;38119;52.710;6.398;2022-12-29T12:01:56;10.00;99.90
52125;DHT22;38119;52.710;6.398;2022-12-29T12:04:30;10.00;99.90
52125;DHT22;38119;52.710;6.398;2022-12-29T12:07:17;10.90;99.90
52125;DHT22;38119;52.710;6.398;2022-12-29T12:09:48;10.10;99.90
52125;DHT22;38119;52.710;6.398;2022-12-29T12:12:29;10.20;99.90
52125;DHT22;38119;52.710;6.398;2022-12-29T12:14:58;10.00;99.90
52125;DHT22;38119;52.710;6.398;2022-12-29T12:17:36;10.00;99.90
52125;DHT22;38119;52.710;6.398;2022-12-29T12:20:19;9.90;99.90
52125;DHT22;38119;52.710;6.398;2022-12-29T12:25:46;9.60;99.90
52125;DHT22;38119;52.710;6.398;2022-12-29T12:28:34;10.00;99.90
52125;DHT22;38119;52.710;6.398;2022-12-29T12:31:11;9.50;99.90
52125;DHT22;38119;52.710;6.398;2022-12-29T12:33:48;9.70;99.90
52125;DHT22;38119;52.710;6.398;2022-12-29T12:36:46;10.20;99.90
52125;DHT22;38119;52.710;6.398;2022-12-29T12:39:32;10.10;99.90
52125;DHT22;38119;52.710;6.398;2022-12-29T12:48:14;9.90;99.90
52125;DHT22;38119;52.710;6.398;2022-12-29T12:53:23;10.70;99.90
52125;DHT22;38119;52.710;6.398;2022-12-29T12:56:12;9.90;99.90
52125;DHT22;38119;52.710;6.398;2022-12-29T12:59:15;9.90;99.90
52125;DHT22;38119;52.710;6.398;2022-12-29T13:16:42;9.60;99.90
52125;DHT22;38119;52.710;6.398;2022-12-29T13:19:34;9.70;99.90
52125;DHT22;38119;52.710;6.398;2022-12-29T13:22:26;10.60;99.90
52125;DHT22;38119;52.710;6.398;2022-12-29T13:27:53;10.00;99.90
52125;DHT22;38119;52.710;6.398;2022-12-29T13:38:24;9.70;99.90
52125;DHT22;38119;52.710;6.398;2022-12-29T13:40:55;9.60;99.90
52125;DHT22;38119;52.710;6.398;2022-12-29T13:43:23;9.60;99.90
52125;DHT22;38119;52.710;6.398;2022-12-29T13:45:58;10.00;99.90
52125;DHT22;38119;52.710;6.398;2022-12-29T13:48:38;9.60;99.90
52125;DHT22;38119;52.710;6.398;2022-12-29T13:51:04;9.50;99.90
52125;DHT22;38119;52.710;6.398;2022-12-29T13:56:41;9.50;99.90
52125;DHT22;38119;52.710;6.398;2022-12-29T14:04:35;10.30;99.90
52125;DHT22;38119;52.710;6.398;2022-12-29T14:07:12;9.40;99.90
52125;DHT22;38119;52.710;6.398;2022-12-29T14:09:43;10.20;99.90
52125;DHT22;38119;52.710;6.398;2022-12-29T14:12:39;9.30;99.90
52125;DHT22;38119;52.710;6.398;2022-12-29T14:17:35;9.30;99.90
52125;DHT22;38119;52.710;6.398;2022-12-29T14:20:04;9.30;99.90
52125;DHT22;38119;52.710;6.398;2022-12-29T14:22:33;9.30;99.90
52125;DHT22;38119;52.710;6.398;2022-12-29T14:24:59;9.50;99.90
52125;DHT22;38119;52.710;6.398;2022-12-29T14:29:53;9.70;99.90
52125;DHT22;38119;52.710;6.398;2022-12-29T14:34:51;10.10;99.90
52125;DHT22;38119;52.710;6.398;2022-12-29T14:37:35;10.00;99.90
52125;DHT22;38119;52.710;6.398;2022-12-29T14:40:23;10.00;99.90
52125;DHT22;38119;52.710;6.398;2022-12-29T14:42:53;9.20;99.90
52125;DHT22;38119;52.710;6.398;2022-12-29T14:47:46;9.40;99.90
52125;DHT22;38119;52.710;6.398;2022-12-29T14:50:15;9.20;99.90
52125;DHT22;38119;52.710;6.398;2022-12-29T14:52:50;9.20;99.90
52125;DHT22;38119;52.710;6.398;2022-12-29T14:57:45;9.10;99.90
52125;DHT22;38119;52.710;6.398;2022-12-29T15:00:23;9.70;99.90
52125;DHT22;38119;52.710;6.398;2022-12-29T15:03:18;9.10;99.90
52125;DHT22;38119;52.710;6.398;2022-12-29T15:05:56;9.10;99.90
52125;DHT22;38119;52.710;6.398;2022-12-29T15:09:03;9.80;99.90
52125;DHT22;38119;52.710;6.398;2022-12-29T15:11:44;9.00;99.90
52125;DHT22;38119;52.710;6.398;2022-12-29T15:14:38;9.80;99.90
52125;DHT22;38119;52.710;6.398;2022-12-29T15:17:30;9.00;99.90
52125;DHT22;38119;52.710;6.398;2022-12-29T15:19:58;9.00;99.90
52125;DHT22;38119;52.710;6.398;2022-12-29T15:22:24;9.80;99.90
52125;DHT22;38119;52.710;6.398;2022-12-29T15:24:52;9.60;99.90
52125;DHT22;38119;52.710;6.398;2022-12-29T15:27:23;9.50;99.90
52125;DHT22;38119;52.710;6.398;2022-12-29T15:30:00;9.30;99.90
52125;DHT22;38119;52.710;6.398;2022-12-29T15:32:43;8.90;99.90
52125;DHT22;38119;52.710;6.398;2022-12-29T15:37:50;8.90;99.90
52125;DHT22;38119;52.710;6.398;2022-12-29T15:40:30;8.70;99.90
52125;DHT22;38119;52.710;6.398;2022-12-29T15:45:32;9.60;99.90
52125;DHT22;38119;52.710;6.398;2022-12-29T15:47:59;8.90;99.90
52125;DHT22;38119;52.710;6.398;2022-12-29T15:50:30;9.50;99.90
52125;DHT22;38119;52.710;6.398;2022-12-29T15:52:57;8.90;99.90
52125;DHT22;38119;52.710;6.398;2022-12-29T15:55:31;9.40;99.90
52125;DHT22;38119;52.710;6.398;2022-12-29T15:58:00;8.80;99.90
52125;DHT22;38119;52.710;6.398;2022-12-29T16:00:35;8.80;99.90
52125;DHT22;38119;52.710;6.398;2022-12-29T16:03:05;8.70;99.90
52125;DHT22;38119;52.710;6.398;2022-12-29T16:05:37;8.70;99.90
52125;DHT22;38119;52.710;6.398;2022-12-29T16:08:15;8.60;99.90
52125;DHT22;38119;52.710;6.398;2022-12-29T16:10:46;8.60;99.90
52125;DHT22;38119;52.710;6.398;2022-12-29T16:13:26;8.50;99.90
52125;DHT22;38119;52.710;6.398;2022-12-29T16:16:14;8.50;99.90
52125;DHT22;38119;52.710;6.398;2022-12-29T16:18:41;8.50;99.90
52125;DHT22;38119;52.710;6.398;2022-12-29T16:21:19;8.50;99.90
52125;DHT22;38119;52.710;6.398;2022-12-29T16:23:48;8.50;99.90
52125;DHT22;38119;52.710;6.398;2022-12-29T16:26:20;8.50;99.90
52125;DHT22;38119;52.710;6.398;2022-12-29T16:29:01;8.50;99.90
52125;DHT22;38119;52.710;6.398;2022-12-29T16:31:35;8.50;99.90
52125;DHT22;38119;52.710;6.398;2022-12-29T16:34:25;8.50;99.90
52125;DHT22;38119;52.710;6.398;2022-12-29T16:37:29;8.50;99.90
52125;DHT22;38119;52.710;6.398;2022-12-29T16:39:55;8.50;99.90
52125;DHT22;38119;52.710;6.398;2022-12-29T16:42:45;8.60;99.90
52125;DHT22;38119;52.710;6.398;2022-12-29T16:45:33;8.70;99.90
52125;DHT22;38119;52.710;6.398;2022-12-29T16:50:33;8.60;99.90
52125;DHT22;38119;52.710;6.398;2022-12-29T16:53:00;8.60;99.90
52125;DHT22;38119;52.710;6.398;2022-12-29T16:55:35;8.50;99.90
52125;DHT22;38119;52.710;6.398;2022-12-29T16:58:01;8.60;99.90
52125;DHT22;38119;52.710;6.398;2022-12-29T17:00:31;8.70;99.90
52125;DHT22;38119;52.710;6.398;2022-12-29T17:03:01;8.70;99.90
52125;DHT22;38119;52.710;6.398;2022-12-29T17:05:27;8.70;99.90
52125;DHT22;38119;52.710;6.398;2022-12-29T17:07:53;8.70;99.90
52125;DHT22;38119;52.710;6.398;2022-12-29T17:10:20;8.70;99.90
52125;DHT22;38119;52.710;6.398;2022-12-29T17:12:47;8.70;99.90
52125;DHT22;38119;52.710;6.398;2022-12-29T17:15:23;8.70;99.90
52125;DHT22;38119;52.710;6.398;2022-12-29T17:17:52;8.80;99.90
52125;DHT22;38119;52.710;6.398;2022-12-29T17:20:24;8.70;99.90
52125;DHT22;38119;52.710;6.398;2022-12-29T17:22:51;8.70;99.90
52125;DHT22;38119;52.710;6.398;2022-12-29T17:25:38;8.70;99.90
52125;DHT22;38119;52.710;6.398;2022-12-29T17:30:39;8.60;99.90
52125;DHT22;38119;52.710;6.398;2022-12-29T17:33:08;8.60;99.90
52125;DHT22;38119;52.710;6.398;2022-12-29T17:35:35;8.60;99.90
52125;DHT22;38119;52.710;6.398;2022-12-29T17:38:00;9.30;99.90
52125;DHT22;38119;52.710;6.398;2022-12-29T17:40:28;8.60;99.90
52125;DHT22;38119;52.710;6.398;2022-12-29T17:42:55;8.60;99.90
52125;DHT22;38119;52.710;6.398;2022-12-29T17:45:29;8.60;99.90
52125;DHT22;38119;52.710;6.398;2022-12-29T17:47:56;8.60;99.90
52125;DHT22;38119;52.710;6.398;2022-12-29T17:50:26;8.50;99.90
52125;DHT22;38119;52.710;6.398;2022-12-29T17:52:56;8.50;99.90
52125;DHT22;38119;52.710;6.398;2022-12-29T17:55:23;8.50;99.90
52125;DHT22;38119;52.710;6.398;2022-12-29T17:57:49;8.50;99.90
52125;DHT22;38119;52.710;6.398;2022-12-29T18:00:16;8.50;99.90
52125;DHT22;38119;52.710;6.398;2022-12-29T18:02:43;8.50;99.90
52125;DHT22;38119;52.710;6.398;2022-12-29T18:05:21;8.50;99.90
52125;DHT22;38119;52.710;6.398;2022-12-29T18:07:52;8.50;99.90
52125;DHT22;38119;52.710;6.398;2022-12-29T18:10:19;8.50;99.90
52125;DHT22;38119;52.710;6.398;2022-12-29T18:12:50;8.60;99.90
52125;DHT22;38119;52.710;6.398;2022-12-29T18:17:44;8.60;99.90
52125;DHT22;38119;52.710;6.398;2022-12-29T18:20:10;8.60;99.90
52125;DHT22;38119;52.710;6.398;2022-12-29T18:22:36;8.60;99.90